Time;durP1;ratioP1;P1;durP2;ratioP2;P2;SDS_P1;SDS_P2;PMS_P1;PMS_P2;Temp;Humidity;BMP_temperature;BMP_pressure;BME280_temperature;BME280_humidity;BME280_pressure;Samples;Min_cycle;Max_cycle;Signal;HPM_P1;HPM_P2
2023/08/30 00:01:26;;;;;;;;;;;25.60;49.50;;;;;;5031188;28;20008;-71
2023/08/30 00:03:52;;;;;;;;;;;25.10;48.40;;;;;;5047705;28;20402;-71
2023/08/30 00:06:19;;;;;;;;;;;25.20;49.20;;;;;;5032650;28;20375;-71
2023/08/30 00:08:46;;;;;;;;;;;25.40;48.20;;;;;;5031807;28;20082;-72
2023/08/30 00:11:14;;;;;;;;;;;25.70;47.80;;;;;;5033211;28;19920;-71
2023/08/30 00:13:42;;;;;;;;;;;26.00;46.50;;;;;;5032285;28;20443;-69
2023/08/30 00:16:08;;;;;;;;;;;25.90;47.80;;;;;;5048878;28;19917;-70
2023/08/30 00:18:35;;;;;;;;;;;25.90;47.60;;;;;;5033429;28;19913;-70
2023/08/30 00:21:02;;;;;;;;;;;26.40;46.10;;;;;;5031593;28;19909;-71
2023/08/30 00:23:28;;;;;;;;;;;26.60;45.70;;;;;;5030693;28;19917;-71
2023/08/30 00:25:55;;;;;;;;;;;26.40;46.10;;;;;;5034680;28;19920;-70
2023/08/30 00:28:22;;;;;;;;;;;26.40;46.50;;;;;;5033521;28;19952;-71
2023/08/30 00:30:53;;;;;;;;;;;26.00;47.00;;;;;;5032303;28;19955;-70
2023/08/30 00:33:20;;;;;;;;;;;25.70;47.60;;;;;;5033185;28;19917;-71
2023/08/30 00:35:47;;;;;;;;;;;25.70;47.30;;;;;;5032422;28;19932;-70
2023/08/30 00:38:13;;;;;;;;;;;26.20;47.10;;;;;;5032344;28;20398;-71
2023/08/30 00:40:40;;;;;;;;;;;26.40;46.80;;;;;;5031844;28;19913;-71
2023/08/30 00:43:08;;;;;;;;;;;26.70;45.60;;;;;;5033590;28;19963;-71
2023/08/30 00:45:37;;;;;;;;;;;26.70;45.80;;;;;;5032017;28;20367;-71
2023/08/30 00:48:04;;;;;;;;;;;26.50;45.10;;;;;;5032576;28;19952;-70
2023/08/30 00:50:31;;;;;;;;;;;26.40;46.00;;;;;;5031686;28;19928;-71
2023/08/30 00:52:57;;;;;;;;;;;26.70;45.70;;;;;;5033472;28;19959;-72
2023/08/30 00:55:24;;;;;;;;;;;27.30;45.80;;;;;;5033794;28;19919;-71
2023/08/30 00:57:51;;;;;;;;;;;27.60;44.10;;;;;;5030069;28;19913;-70
2023/08/30 01:00:17;;;;;;;;;;;27.70;43.90;;;;;;5033232;28;19963;-70
2023/08/30 01:02:45;;;;;;;;;;;27.70;43.90;;;;;;5032012;28;19996;-72
2023/08/30 01:05:11;;;;;;;;;;;27.70;43.30;;;;;;5030297;28;19912;-70
2023/08/30 01:07:38;;;;;;;;;;;27.60;43.70;;;;;;5032452;28;19913;-71
2023/08/30 01:10:05;;;;;;;;;;;28.20;43.20;;;;;;5030437;28;19936;-72
2023/08/30 01:12:37;;;;;;;;;;;28.40;42.30;;;;;;5032117;28;20003;-72
2023/08/30 01:15:07;;;;;;;;;;;28.30;42.20;;;;;;5031133;28;19964;-71
2023/08/30 01:17:34;;;;;;;;;;;28.00;42.70;;;;;;5032688;28;19909;-71
2023/08/30 01:20:17;;;;;;;;;;;28.40;42.50;;;;;;5033155;28;19952;-71
2023/08/30 01:22:43;;;;;;;;;;;28.40;42.50;;;;;;5029847;28;19924;-71
2023/08/30 01:25:28;;;;;;;;;;;28.20;42.20;;;;;;5031802;28;19952;-72
2023/08/30 01:27:55;;;;;;;;;;;28.50;42.60;;;;;;5026478;28;19936;-70
2023/08/30 01:30:22;;;;;;;;;;;28.70;42.40;;;;;;5031530;28;20008;-73
2023/08/30 01:32:50;;;;;;;;;;;28.80;41.80;;;;;;5032432;28;19917;-72
2023/08/30 01:35:19;;;;;;;;;;;29.20;43.10;;;;;;5033542;28;19939;-72
2023/08/30 01:37:46;;;;;;;;;;;29.40;42.00;;;;;;5032983;28;20831;-71
2023/08/30 01:40:15;;;;;;;;;;;29.10;41.30;;;;;;5031685;28;19920;-71
2023/08/30 01:42:44;;;;;;;;;;;29.50;41.20;;;;;;5031644;28;20018;-71
2023/08/30 01:45:13;;;;;;;;;;;29.40;40.80;;;;;;5027784;28;19925;-72
2023/08/30 01:47:40;;;;;;;;;;;29.20;41.50;;;;;;5046085;28;19961;-72
2023/08/30 01:50:07;;;;;;;;;;;29.00;41.20;;;;;;5031304;28;19940;-70
2023/08/30 01:52:34;;;;;;;;;;;28.80;41.20;;;;;;5033110;28;19916;-72
2023/08/30 01:55:02;;;;;;;;;;;28.80;41.40;;;;;;5034955;28;19912;-72
2023/08/30 01:57:29;;;;;;;;;;;28.40;42.10;;;;;;5031605;28;19913;-72
2023/08/30 01:59:55;;;;;;;;;;;28.60;43.00;;;;;;5034839;28;19924;-70
2023/08/30 02:02:22;;;;;;;;;;;29.10;41.60;;;;;;5035405;28;19920;-72
2023/08/30 02:04:49;;;;;;;;;;;29.40;42.20;;;;;;5034986;28;19917;-72
2023/08/30 02:07:17;;;;;;;;;;;29.60;41.60;;;;;;5032847;28;19968;-72
2023/08/30 02:10:03;;;;;;;;;;;29.90;40.60;;;;;;5033418;28;19917;-71
2023/08/30 02:12:33;;;;;;;;;;;29.80;40.80;;;;;;5033381;28;19913;-72
2023/08/30 02:15:00;;;;;;;;;;;30.20;40.50;;;;;;5035146;28;19995;-72
2023/08/30 02:17:27;;;;;;;;;;;30.10;40.90;;;;;;5032672;28;19956;-71
2023/08/30 02:19:54;;;;;;;;;;;30.00;39.60;;;;;;5033585;28;19917;-72
2023/08/30 02:22:21;;;;;;;;;;;30.10;38.90;;;;;;5035282;28;19935;-71
2023/08/30 02:24:47;;;;;;;;;;;29.60;39.30;;;;;;5034084;28;20375;-73
2023/08/30 02:27:14;;;;;;;;;;;28.80;38.20;;;;;;5032839;28;20085;-73
2023/08/30 02:29:41;;;;;;;;;;;28.80;39.30;;;;;;5035711;28;20002;-73
2023/08/30 02:32:07;;;;;;;;;;;29.00;39.40;;;;;;5034575;28;19917;-72
2023/08/30 02:34:35;;;;;;;;;;;29.30;39.40;;;;;;5034668;28;19920;-73
2023/08/30 02:37:02;;;;;;;;;;;29.50;39.10;;;;;;5034364;28;19916;-71
2023/08/30 02:39:28;;;;;;;;;;;29.40;38.80;;;;;;5035085;28;19943;-71
2023/08/30 02:41:55;;;;;;;;;;;29.10;39.30;;;;;;5034873;28;19956;-72
2023/08/30 02:44:22;;;;;;;;;;;29.50;39.50;;;;;;5030105;28;19931;-72
2023/08/30 02:46:48;;;;;;;;;;;30.10;38.60;;;;;;5034125;28;20338;-71
2023/08/30 02:49:15;;;;;;;;;;;30.20;38.00;;;;;;5034003;28;20317;-72
2023/08/30 02:51:42;;;;;;;;;;;30.30;37.80;;;;;;5035523;28;20219;-71
2023/08/30 02:54:08;;;;;;;;;;;30.50;38.30;;;;;;5033333;28;19936;-72
2023/08/30 02:56:35;;;;;;;;;;;29.90;37.10;;;;;;5034786;28;19913;-71
2023/08/30 02:59:02;;;;;;;;;;;30.20;37.70;;;;;;5032379;28;20283;-71
2023/08/30 03:01:28;;;;;;;;;;;30.40;36.80;;;;;;5029455;28;20377;-72
2023/08/30 03:03:55;;;;;;;;;;;30.60;37.60;;;;;;5032470;28;19917;-73
2023/08/30 03:06:22;;;;;;;;;;;31.00;37.20;;;;;;5033459;28;19917;-72
2023/08/30 03:08:48;;;;;;;;;;;31.00;37.00;;;;;;5032410;28;19920;-72
2023/08/30 03:11:15;;;;;;;;;;;29.80;37.70;;;;;;5034492;28;20285;-73
2023/08/30 03:13:42;;;;;;;;;;;28.80;37.80;;;;;;5034264;28;19960;-73
2023/08/30 03:16:12;;;;;;;;;;;28.40;38.80;;;;;;5033900;28;19909;-72
2023/08/30 03:18:39;;;;;;;;;;;28.50;38.70;;;;;;5035766;28;19913;-73
2023/08/30 03:21:06;;;;;;;;;;;28.00;38.80;;;;;;5037106;28;20070;-72
2023/08/30 03:23:33;;;;;;;;;;;27.30;38.40;;;;;;5034539;28;19976;-70
2023/08/30 03:26:00;;;;;;;;;;;27.10;39.00;;;;;;5035347;28;19974;-70
2023/08/30 03:28:27;;;;;;;;;;;27.10;38.90;;;;;;5031742;28;19921;-71
2023/08/30 03:30:54;;;;;;;;;;;27.20;37.90;;;;;;5031427;28;19913;-71
2023/08/30 03:33:20;;;;;;;;;;;27.10;38.50;;;;;;5034606;28;19999;-73
2023/08/30 03:35:47;;;;;;;;;;;26.90;39.60;;;;;;5031687;28;19924;-73
2023/08/30 03:38:14;;;;;;;;;;;26.70;39.70;;;;;;5033873;28;20329;-72
2023/08/30 03:40:40;;;;;;;;;;;26.60;40.00;;;;;;5034538;28;19956;-73
2023/08/30 03:43:07;;;;;;;;;;;26.60;39.50;;;;;;5033188;28;19924;-73
2023/08/30 03:45:37;;;;;;;;;;;26.70;40.20;;;;;;5031104;28;20150;-70
2023/08/30 03:48:04;;;;;;;;;;;26.70;39.10;;;;;;5026779;28;19913;-72
2023/08/30 03:50:31;;;;;;;;;;;26.80;40.40;;;;;;5035250;28;19925;-73
2023/08/30 03:52:57;;;;;;;;;;;26.70;40.40;;;;;;5033484;28;19917;-73
2023/08/30 03:55:24;;;;;;;;;;;26.70;39.50;;;;;;5030926;28;19919;-72
2023/08/30 03:57:51;;;;;;;;;;;26.70;40.10;;;;;;5031983;28;19920;-72
2023/08/30 04:00:17;;;;;;;;;;;26.70;42.40;;;;;;5033619;28;19912;-72
2023/08/30 04:02:44;;;;;;;;;;;26.20;42.40;;;;;;5034965;28;19966;-71
2023/08/30 04:05:11;;;;;;;;;;;26.00;42.40;;;;;;5031552;28;19921;-73
2023/08/30 04:07:37;;;;;;;;;;;25.80;44.60;;;;;;5035561;28;19975;-73
2023/08/30 04:10:06;;;;;;;;;;;25.80;44.90;;;;;;5033639;28;19909;-72
2023/08/30 04:12:34;;;;;;;;;;;25.80;42.90;;;;;;5033367;28;19925;-71
2023/08/30 04:15:03;;;;;;;;;;;25.50;43.60;;;;;;5029386;28;20378;-73
2023/08/30 04:17:30;;;;;;;;;;;25.40;43.50;;;;;;5031058;28;19966;-72
2023/08/30 04:19:57;;;;;;;;;;;25.30;44.50;;;;;;5029973;28;19917;-72
2023/08/30 04:22:23;;;;;;;;;;;25.20;45.00;;;;;;5033021;28;20413;-72
2023/08/30 04:24:50;;;;;;;;;;;25.50;44.00;;;;;;5031010;28;19959;-72
2023/08/30 04:27:17;;;;;;;;;;;25.50;44.40;;;;;;5031914;28;19925;-71
2023/08/30 04:29:45;;;;;;;;;;;25.20;44.90;;;;;;5026586;28;19974;-72
2023/08/30 04:32:11;;;;;;;;;;;25.00;45.70;;;;;;5032243;28;19913;-71
2023/08/30 04:34:38;;;;;;;;;;;25.00;45.30;;;;;;5031562;28;19920;-71
2023/08/30 04:37:04;;;;;;;;;;;25.10;44.80;;;;;;5031573;28;19913;-71
2023/08/30 04:39:31;;;;;;;;;;;25.20;44.40;;;;;;5028595;28;19913;-70
2023/08/30 04:41:58;;;;;;;;;;;24.90;44.90;;;;;;5032132;28;20011;-71
2023/08/30 04:44:27;;;;;;;;;;;24.70;45.60;;;;;;5027904;28;19929;-72
2023/08/30 04:46:54;;;;;;;;;;;24.30;47.20;;;;;;5031653;28;19921;-72
2023/08/30 04:49:21;;;;;;;;;;;24.00;47.20;;;;;;5033152;28;19913;-72
2023/08/30 04:51:48;;;;;;;;;;;23.70;48.10;;;;;;5031500;28;19967;-71
2023/08/30 04:54:15;;;;;;;;;;;23.20;50.50;;;;;;5031900;28;19927;-71
2023/08/30 04:56:42;;;;;;;;;;;22.90;52.60;;;;;;5030360;28;20290;-71
2023/08/30 04:59:08;;;;;;;;;;;22.40;54.10;;;;;;5034242;28;20382;-71
2023/08/30 05:01:35;;;;;;;;;;;22.10;55.60;;;;;;5031903;28;19924;-71
2023/08/30 05:04:02;;;;;;;;;;;21.90;56.50;;;;;;5031045;28;19913;-72
2023/08/30 05:06:28;;;;;;;;;;;21.60;56.60;;;;;;5029029;28;19921;-71
2023/08/30 05:08:55;;;;;;;;;;;21.30;57.60;;;;;;5031257;28;19917;-71
2023/08/30 05:11:22;;;;;;;;;;;21.00;59.30;;;;;;5032856;28;19916;-72
2023/08/30 05:13:48;;;;;;;;;;;20.80;59.30;;;;;;5048141;28;19909;-72
2023/08/30 05:16:15;;;;;;;;;;;20.60;57.70;;;;;;5026860;28;19925;-71
2023/08/30 05:18:42;;;;;;;;;;;20.50;54.50;;;;;;5028182;28;19913;-71
2023/08/30 05:21:08;;;;;;;;;;;20.30;56.20;;;;;;5029439;28;19917;-72
2023/08/30 05:23:35;;;;;;;;;;;20.20;57.40;;;;;;5031060;28;20003;-71
2023/08/30 05:26:02;;;;;;;;;;;20.30;58.10;;;;;;5035962;28;19961;-71
2023/08/30 05:28:28;;;;;;;;;;;20.30;56.20;;;;;;5036753;28;19914;-71
2023/08/30 05:30:55;;;;;;;;;;;20.20;56.20;;;;;;5050695;28;19920;-71
2023/08/30 05:33:26;;;;;;;;;;;20.30;53.50;;;;;;5033551;28;19967;-72
2023/08/30 05:35:53;;;;;;;;;;;20.40;52.20;;;;;;5034663;28;20395;-71
2023/08/30 05:38:20;;;;;;;;;;;20.40;54.80;;;;;;5022735;28;19951;-70
2023/08/30 05:40:46;;;;;;;;;;;20.10;57.10;;;;;;5022242;28;19952;-71
2023/08/30 05:43:13;;;;;;;;;;;19.80;57.90;;;;;;5028748;28;19970;-70
2023/08/30 05:45:40;;;;;;;;;;;19.70;59.10;;;;;;5033024;28;19925;-71
2023/08/30 05:48:07;;;;;;;;;;;19.50;59.60;;;;;;5031099;28;19971;-72
2023/08/30 05:50:33;;;;;;;;;;;19.30;61.10;;;;;;5028478;28;19964;-72
2023/08/30 05:53:00;;;;;;;;;;;18.80;63.40;;;;;;5033632;28;19917;-71
2023/08/30 05:55:26;;;;;;;;;;;18.50;66.70;;;;;;5032665;28;20418;-71
2023/08/30 05:57:53;;;;;;;;;;;18.20;70.00;;;;;;5030687;28;19921;-71
2023/08/30 06:00:20;;;;;;;;;;;18.10;73.60;;;;;;5028891;28;20626;-71
2023/08/30 06:02:46;;;;;;;;;;;18.00;78.30;;;;;;5028647;28;19917;-70
2023/08/30 06:05:13;;;;;;;;;;;17.80;83.60;;;;;;5033826;28;20326;-71
2023/08/30 06:07:40;;;;;;;;;;;17.40;87.60;;;;;;5027154;28;19917;-70
2023/08/30 06:10:07;;;;;;;;;;;17.00;90.00;;;;;;5025010;28;20263;-71
2023/08/30 06:12:33;;;;;;;;;;;16.70;91.30;;;;;;5028525;28;19931;-69
2023/08/30 06:15:00;;;;;;;;;;;16.50;92.10;;;;;;5032293;28;20248;-71
2023/08/30 06:17:27;;;;;;;;;;;16.30;93.00;;;;;;5034185;28;20397;-71
2023/08/30 06:19:53;;;;;;;;;;;16.20;94.90;;;;;;5030336;28;19940;-70
2023/08/30 06:22:20;;;;;;;;;;;16.20;95.40;;;;;;5032112;28;19924;-71
2023/08/30 06:24:46;;;;;;;;;;;16.30;94.90;;;;;;5033599;28;19917;-69
2023/08/30 06:27:13;;;;;;;;;;;16.30;94.60;;;;;;5029459;28;19921;-71
2023/08/30 06:29:40;;;;;;;;;;;16.20;94.20;;;;;;5031918;28;19980;-71
2023/08/30 06:32:06;;;;;;;;;;;16.10;94.60;;;;;;5030015;28;19944;-70
2023/08/30 06:34:33;;;;;;;;;;;16.00;95.90;;;;;;5033855;28;20008;-71
2023/08/30 06:37:00;;;;;;;;;;;15.90;95.80;;;;;;5030254;28;19917;-70
2023/08/30 06:39:32;;;;;;;;;;;15.90;95.20;;;;;;5024215;28;20281;-71
2023/08/30 06:41:59;;;;;;;;;;;15.80;95.80;;;;;;5025911;28;19988;-71
2023/08/30 06:44:25;;;;;;;;;;;15.90;95.80;;;;;;5023417;28;20394;-69
2023/08/30 06:46:52;;;;;;;;;;;15.90;95.40;;;;;;5026906;28;19921;-70
2023/08/30 06:49:19;;;;;;;;;;;15.80;95.60;;;;;;5026951;28;20311;-70
2023/08/30 06:51:45;;;;;;;;;;;15.80;96.10;;;;;;5032778;28;19917;-70
2023/08/30 06:54:12;;;;;;;;;;;15.80;95.90;;;;;;5034909;28;19917;-71
2023/08/30 06:56:39;;;;;;;;;;;15.80;95.80;;;;;;5029581;28;19944;-71
2023/08/30 06:59:05;;;;;;;;;;;15.80;96.20;;;;;;5030292;28;19913;-70
2023/08/30 07:01:32;;;;;;;;;;;15.80;96.00;;;;;;5028669;28;21017;-71
2023/08/30 07:03:59;;;;;;;;;;;16.10;95.70;;;;;;5030281;28;20549;-70
2023/08/30 07:06:29;;;;;;;;;;;16.10;96.10;;;;;;5031622;28;20290;-70
2023/08/30 07:08:56;;;;;;;;;;;16.10;96.10;;;;;;5031850;28;19920;-70
2023/08/30 07:11:23;;;;;;;;;;;16.10;96.20;;;;;;5030867;28;19917;-71
2023/08/30 07:13:49;;;;;;;;;;;16.10;96.40;;;;;;5034090;28;19912;-70
2023/08/30 07:16:16;;;;;;;;;;;16.10;96.80;;;;;;5032531;28;19913;-70
2023/08/30 07:18:43;;;;;;;;;;;16.10;96.40;;;;;;5032404;28;19913;-70
2023/08/30 07:21:09;;;;;;;;;;;16.00;96.40;;;;;;5027928;28;19913;-71
2023/08/30 07:23:36;;;;;;;;;;;16.00;96.20;;;;;;5029856;28;19913;-71
2023/08/30 07:26:03;;;;;;;;;;;16.20;96.10;;;;;;5029404;28;19929;-70
2023/08/30 07:28:30;;;;;;;;;;;16.10;96.00;;;;;;5027462;28;19924;-71
2023/08/30 07:31:05;;;;;;;;;;;15.90;96.00;;;;;;5028231;28;20047;-70
2023/08/30 07:33:32;;;;;;;;;;;15.90;96.20;;;;;;5025125;28;19913;-70
2023/08/30 07:36:00;;;;;;;;;;;16.00;96.10;;;;;;5029534;28;19917;-70
2023/08/30 07:38:26;;;;;;;;;;;16.00;96.30;;;;;;5028435;28;20436;-70
2023/08/30 07:40:53;;;;;;;;;;;16.20;95.60;;;;;;5027756;28;19913;-69
2023/08/30 07:43:20;;;;;;;;;;;16.30;95.20;;;;;;5030653;28;19913;-69
2023/08/30 07:45:47;;;;;;;;;;;16.20;95.60;;;;;;5030593;28;19929;-69
2023/08/30 07:48:14;;;;;;;;;;;16.10;95.30;;;;;;5028295;28;19913;-70
2023/08/30 07:50:41;;;;;;;;;;;16.20;95.00;;;;;;5029060;28;19909;-70
2023/08/30 07:53:07;;;;;;;;;;;16.10;94.80;;;;;;5031180;28;19934;-71
2023/08/30 07:55:34;;;;;;;;;;;16.10;95.10;;;;;;5032868;28;19932;-70
2023/08/30 07:58:01;;;;;;;;;;;16.10;94.90;;;;;;5032956;28;19913;-70
2023/08/30 08:00:27;;;;;;;;;;;15.90;94.90;;;;;;5028840;28;20051;-70
2023/08/30 08:02:54;;;;;;;;;;;15.70;96.40;;;;;;5026808;28;20365;-71
2023/08/30 08:05:21;;;;;;;;;;;15.70;96.90;;;;;;5029228;28;20050;-70
2023/08/30 08:07:51;;;;;;;;;;;15.60;96.80;;;;;;5029980;28;19959;-70
2023/08/30 08:10:18;;;;;;;;;;;15.50;97.60;;;;;;5026300;28;19917;-71
2023/08/30 08:12:45;;;;;;;;;;;15.50;97.00;;;;;;5027716;28;20026;-69
2023/08/30 08:15:11;;;;;;;;;;;15.50;97.40;;;;;;5024539;28;19929;-70
2023/08/30 08:17:38;;;;;;;;;;;15.50;98.20;;;;;;5024960;28;19924;-70
2023/08/30 08:20:06;;;;;;;;;;;15.90;97.30;;;;;;5030612;28;19913;-70
2023/08/30 08:22:33;;;;;;;;;;;15.80;97.20;;;;;;5031299;28;19976;-70
2023/08/30 08:24:59;;;;;;;;;;;15.80;97.90;;;;;;5028171;28;19913;-70
2023/08/30 08:27:26;;;;;;;;;;;15.80;98.10;;;;;;5023890;28;19921;-70
2023/08/30 08:29:53;;;;;;;;;;;15.80;98.40;;;;;;5030435;28;20279;-70
2023/08/30 08:32:20;;;;;;;;;;;15.80;98.10;;;;;;5032442;28;20358;-70
2023/08/30 08:34:47;;;;;;;;;;;15.70;98.40;;;;;;5031200;28;19928;-70
2023/08/30 08:37:14;;;;;;;;;;;15.60;99.00;;;;;;5029809;28;19925;-70
2023/08/30 08:39:42;;;;;;;;;;;15.60;98.50;;;;;;5032984;28;19920;-70
2023/08/30 08:42:09;;;;;;;;;;;15.50;98.70;;;;;;5032204;28;19913;-69
2023/08/30 08:44:36;;;;;;;;;;;15.70;98.70;;;;;;5032692;28;19976;-69
2023/08/30 08:47:03;;;;;;;;;;;15.80;98.40;;;;;;5027196;28;19921;-69
2023/08/30 08:49:31;;;;;;;;;;;15.70;98.40;;;;;;5029009;28;20047;-70
2023/08/30 08:51:57;;;;;;;;;;;15.70;98.50;;;;;;5031065;28;19936;-70
2023/08/30 08:54:25;;;;;;;;;;;15.70;98.10;;;;;;5032965;28;19913;-70
2023/08/30 08:56:52;;;;;;;;;;;15.40;98.30;;;;;;5032529;28;20317;-70
2023/08/30 08:59:20;;;;;;;;;;;15.30;98.80;;;;;;5030514;28;19917;-70
2023/08/30 09:01:47;;;;;;;;;;;15.50;98.60;;;;;;5032266;28;19925;-70
2023/08/30 09:04:14;;;;;;;;;;;15.50;98.10;;;;;;5032697;28;20370;-70
2023/08/30 09:06:43;;;;;;;;;;;15.50;98.30;;;;;;5035687;28;19921;-70
2023/08/30 09:09:10;;;;;;;;;;;15.30;98.50;;;;;;5034746;28;19994;-70
2023/08/30 09:11:37;;;;;;;;;;;15.30;98.90;;;;;;5036119;28;20286;-70
2023/08/30 09:14:03;;;;;;;;;;;15.10;99.10;;;;;;5035725;28;19920;-68
2023/08/30 09:16:30;;;;;;;;;;;15.00;99.30;;;;;;5034759;28;19932;-69
2023/08/30 09:18:59;;;;;;;;;;;14.90;99.60;;;;;;5033732;28;19967;-69
2023/08/30 09:21:25;;;;;;;;;;;14.80;99.70;;;;;;5035016;28;19920;-69
2023/08/30 09:23:59;;;;;;;;;;;14.80;99.70;;;;;;5033576;28;20351;-69
2023/08/30 09:26:28;;;;;;;;;;;14.70;99.90;;;;;;5035447;28;19921;-69
2023/08/30 09:28:55;;;;;;;;;;;14.90;99.90;;;;;;5033851;28;19924;-69
2023/08/30 09:31:22;;;;;;;;;;;15.10;99.50;;;;;;5033570;28;19921;-70
2023/08/30 09:33:49;;;;;;;;;;;15.00;99.30;;;;;;5036322;28;19967;-68
2023/08/30 09:36:15;;;;;;;;;;;14.80;99.70;;;;;;5035711;28;19975;-69
2023/08/30 09:38:48;;;;;;;;;;;15.00;99.60;;;;;;5037512;28;19960;-69
2023/08/30 09:41:16;;;;;;;;;;;15.10;99.30;;;;;;5033712;28;19921;-69
2023/08/30 09:43:43;;;;;;;;;;;14.90;99.50;;;;;;5034203;28;20008;-69
2023/08/30 09:46:10;;;;;;;;;;;14.70;99.90;;;;;;5035705;28;19948;-68
2023/08/30 09:48:38;;;;;;;;;;;14.70;99.90;;;;;;5034596;28;19921;-68
2023/08/30 09:51:06;;;;;;;;;;;14.60;99.80;;;;;;5034651;28;19917;-69
2023/08/30 09:53:36;;;;;;;;;;;14.60;99.90;;;;;;5033484;28;19913;-69
2023/08/30 09:56:04;;;;;;;;;;;14.60;99.90;;;;;;5035826;28;19921;-69
2023/08/30 09:58:31;;;;;;;;;;;14.60;99.70;;;;;;5032492;28;20004;-69
2023/08/30 10:00:58;;;;;;;;;;;14.60;99.90;;;;;;5026470;28;19917;-69
2023/08/30 10:03:25;;;;;;;;;;;14.60;99.90;;;;;;5030990;28;19921;-69
2023/08/30 10:05:52;;;;;;;;;;;14.40;99.90;;;;;;5030937;28;19929;-69
2023/08/30 10:08:20;;;;;;;;;;;14.40;99.90;;;;;;5032247;28;19952;-69
2023/08/30 10:10:47;;;;;;;;;;;14.40;99.90;;;;;;5033492;28;19917;-69
2023/08/30 10:13:14;;;;;;;;;;;14.40;99.90;;;;;;5032887;28;20350;-69
2023/08/30 10:15:43;;;;;;;;;;;14.60;99.90;;;;;;5033123;28;21207;-68
2023/08/30 10:18:11;;;;;;;;;;;14.60;99.90;;;;;;5030686;28;19943;-70
2023/08/30 10:20:39;;;;;;;;;;;14.40;99.90;;;;;;5026867;28;19921;-69
2023/08/30 10:23:06;;;;;;;;;;;14.40;99.90;;;;;;5032045;28;19952;-70
2023/08/30 10:25:33;;;;;;;;;;;14.40;99.90;;;;;;5031578;28;19971;-68
2023/08/30 10:28:00;;;;;;;;;;;14.40;99.90;;;;;;5033543;28;19913;-69
2023/08/30 10:30:27;;;;;;;;;;;14.40;99.90;;;;;;5031397;28;19928;-68
2023/08/30 10:32:53;;;;;;;;;;;14.40;99.90;;;;;;5030270;28;19948;-68
2023/08/30 10:35:20;;;;;;;;;;;14.40;99.90;;;;;;5026850;28;19913;-68
2023/08/30 10:37:56;;;;;;;;;;;14.60;99.90;;;;;;5030289;28;19924;-68
2023/08/30 10:40:23;;;;;;;;;;;14.60;99.90;;;;;;5030389;28;19928;-68
2023/08/30 10:43:00;;;;;;;;;;;14.70;99.90;;;;;;5034122;28;19960;-69
2023/08/30 10:45:27;;;;;;;;;;;14.70;99.90;;;;;;5032115;28;20223;-69
2023/08/30 10:47:57;;;;;;;;;;;14.90;99.90;;;;;;5032192;28;19917;-68
2023/08/30 10:50:31;;;;;;;;;;;15.00;99.90;;;;;;5031275;28;19913;-69
2023/08/30 10:52:58;;;;;;;;;;;14.80;99.80;;;;;;5032237;28;19920;-69
2023/08/30 10:55:25;;;;;;;;;;;14.60;99.90;;;;;;5033287;28;20390;-69
2023/08/30 10:58:02;;;;;;;;;;;14.50;99.90;;;;;;5036851;28;19913;-69
2023/08/30 11:00:30;;;;;;;;;;;14.70;99.90;;;;;;5034485;28;20007;-69
2023/08/30 11:02:56;;;;;;;;;;;14.70;99.90;;;;;;5035071;28;19921;-70
2023/08/30 11:05:24;;;;;;;;;;;14.70;99.90;;;;;;5031215;28;20785;-69
2023/08/30 11:07:51;;;;;;;;;;;14.90;99.90;;;;;;5030498;28;19921;-69
2023/08/30 11:10:18;;;;;;;;;;;14.70;99.90;;;;;;5032380;28;19975;-68
2023/08/30 11:12:45;;;;;;;;;;;14.80;99.90;;;;;;5030226;28;19913;-68
2023/08/30 11:15:16;;;;;;;;;;;14.90;99.90;;;;;;5030998;28;20523;-69
2023/08/30 11:17:42;;;;;;;;;;;14.70;99.80;;;;;;5034711;28;19916;-68
2023/08/30 11:20:10;;;;;;;;;;;14.40;99.90;;;;;;5032381;28;19913;-69
2023/08/30 11:22:41;;;;;;;;;;;14.40;99.90;;;;;;5033936;28;19921;-69
2023/08/30 11:25:11;;;;;;;;;;;14.40;99.90;;;;;;5034383;28;19920;-69
2023/08/30 11:27:38;;;;;;;;;;;14.30;99.90;;;;;;5030315;28;19921;-68
2023/08/30 11:30:09;;;;;;;;;;;14.40;99.90;;;;;;5034223;28;19912;-69
2023/08/30 11:32:39;;;;;;;;;;;14.30;99.90;;;;;;5033216;28;19972;-69
2023/08/30 11:35:06;;;;;;;;;;;14.20;99.90;;;;;;5033139;28;19916;-69
2023/08/30 11:37:33;;;;;;;;;;;14.20;99.90;;;;;;5032608;28;20388;-68
2023/08/30 11:40:01;;;;;;;;;;;14.30;99.90;;;;;;5031180;28;19913;-70
2023/08/30 11:42:28;;;;;;;;;;;14.10;99.90;;;;;;5030309;28;20370;-69
2023/08/30 11:44:55;;;;;;;;;;;14.00;99.90;;;;;;5034017;28;20017;-69
2023/08/30 11:47:25;;;;;;;;;;;14.00;99.90;;;;;;5031468;28;19921;-68
2023/08/30 11:49:55;;;;;;;;;;;14.00;99.90;;;;;;5032720;28;19913;-69
2023/08/30 11:52:23;;;;;;;;;;;14.00;99.90;;;;;;5032316;28;20325;-70
2023/08/30 11:54:50;;;;;;;;;;;13.90;99.90;;;;;;5032500;28;19936;-69
2023/08/30 11:57:17;;;;;;;;;;;13.90;99.90;;;;;;5031818;28;19924;-69
2023/08/30 11:59:44;;;;;;;;;;;13.80;99.90;;;;;;5029760;28;19917;-68
2023/08/30 12:02:14;;;;;;;;;;;13.90;99.90;;;;;;5030534;28;19928;-69
2023/08/30 12:04:45;;;;;;;;;;;13.80;99.90;;;;;;5031160;28;20289;-69
2023/08/30 12:07:22;;;;;;;;;;;13.90;99.90;;;;;;5031448;28;20034;-69
2023/08/30 12:09:49;;;;;;;;;;;13.90;99.90;;;;;;5028737;28;20019;-69
2023/08/30 12:12:16;;;;;;;;;;;13.80;99.90;;;;;;5030254;28;19917;-68
2023/08/30 12:14:43;;;;;;;;;;;13.70;99.90;;;;;;5032210;28;19913;-69
2023/08/30 12:17:12;;;;;;;;;;;13.70;99.90;;;;;;5030009;28;20391;-69
2023/08/30 12:19:41;;;;;;;;;;;13.60;99.90;;;;;;5024810;28;19936;-69
2023/08/30 12:22:08;;;;;;;;;;;13.50;99.90;;;;;;5031791;28;19967;-69
2023/08/30 12:24:44;;;;;;;;;;;13.50;99.90;;;;;;5032095;28;20031;-69
2023/08/30 12:27:11;;;;;;;;;;;13.40;99.90;;;;;;5033360;28;19925;-69
2023/08/30 12:29:38;;;;;;;;;;;13.40;99.90;;;;;;5027747;28;19995;-69
2023/08/30 12:32:05;;;;;;;;;;;13.40;99.90;;;;;;5034617;28;20344;-69
2023/08/30 12:34:32;;;;;;;;;;;13.40;99.90;;;;;;5030488;28;19913;-70
2023/08/30 12:36:59;;;;;;;;;;;13.40;99.90;;;;;;5035487;28;19913;-69
2023/08/30 12:39:26;;;;;;;;;;;13.40;99.90;;;;;;5032146;28;19967;-69
2023/08/30 12:41:52;;;;;;;;;;;13.40;99.90;;;;;;5033212;28;19909;-70
2023/08/30 12:44:19;;;;;;;;;;;13.40;99.90;;;;;;5032858;28;19995;-69
2023/08/30 12:46:46;;;;;;;;;;;13.40;99.90;;;;;;5032770;28;20362;-69
2023/08/30 12:49:13;;;;;;;;;;;13.80;99.90;;;;;;5032411;28;19909;-69
2023/08/30 12:51:40;;;;;;;;;;;14.10;99.90;;;;;;5034158;28;20939;-69
2023/08/30 12:54:11;;;;;;;;;;;14.10;99.90;;;;;;5028303;28;21295;-69
2023/08/30 12:56:39;;;;;;;;;;;14.00;99.90;;;;;;5032630;28;20003;-69
2023/08/30 12:59:05;;;;;;;;;;;14.20;99.90;;;;;;5046967;28;19909;-69
2023/08/30 13:01:32;;;;;;;;;;;14.10;99.90;;;;;;5031475;28;20446;-69
2023/08/30 13:03:59;;;;;;;;;;;14.00;99.90;;;;;;5034103;28;19913;-69
2023/08/30 13:06:25;;;;;;;;;;;13.70;99.90;;;;;;5031607;28;19925;-69
2023/08/30 13:08:52;;;;;;;;;;;13.60;99.90;;;;;;5031098;28;19919;-69
2023/08/30 13:11:19;;;;;;;;;;;13.50;99.90;;;;;;5029156;28;19913;-69
2023/08/30 13:13:45;;;;;;;;;;;13.40;99.90;;;;;;5031695;28;20279;-69
2023/08/30 13:16:12;;;;;;;;;;;13.60;99.90;;;;;;5030384;28;19917;-70
2023/08/30 13:18:39;;;;;;;;;;;13.60;99.90;;;;;;5030371;28;19917;-69
2023/08/30 13:21:05;;;;;;;;;;;13.70;99.90;;;;;;5025699;28;20071;-69
2023/08/30 13:23:32;;;;;;;;;;;13.80;99.90;;;;;;5025928;28;20416;-69
2023/08/30 13:25:59;;;;;;;;;;;13.60;99.90;;;;;;5029244;28;19932;-69
2023/08/30 13:28:25;;;;;;;;;;;13.40;99.90;;;;;;5030279;28;19986;-69
2023/08/30 13:30:54;;;;;;;;;;;13.30;99.90;;;;;;5028224;28;20381;-70
2023/08/30 13:33:20;;;;;;;;;;;13.20;99.90;;;;;;5029047;28;19921;-69
2023/08/30 13:35:53;;;;;;;;;;;13.10;99.90;;;;;;5025884;28;19931;-71
2023/08/30 13:38:20;;;;;;;;;;;13.10;99.90;;;;;;5025929;28;19967;-69
2023/08/30 13:40:47;;;;;;;;;;;13.00;99.90;;;;;;5028474;28;20382;-69
2023/08/30 13:43:14;;;;;;;;;;;13.00;99.90;;;;;;5030612;28;19920;-68
2023/08/30 13:45:41;;;;;;;;;;;13.00;99.90;;;;;;5029749;28;20294;-68
2023/08/30 13:48:10;;;;;;;;;;;13.20;99.90;;;;;;5036318;28;20412;-68
2023/08/30 13:50:41;;;;;;;;;;;13.30;99.90;;;;;;5029452;28;19913;-68
2023/08/30 13:53:08;;;;;;;;;;;13.30;99.90;;;;;;5031999;28;20282;-69
2023/08/30 13:55:34;;;;;;;;;;;13.20;99.90;;;;;;5035178;28;19917;-68
2023/08/30 13:58:01;;;;;;;;;;;13.00;99.90;;;;;;5034550;28;20297;-68
2023/08/30 14:00:28;;;;;;;;;;;12.80;99.90;;;;;;5034010;28;20006;-68
2023/08/30 14:02:55;;;;;;;;;;;12.80;99.90;;;;;;5035947;28;20003;-67
2023/08/30 14:05:21;;;;;;;;;;;12.70;99.90;;;;;;5035478;28;19994;-68
2023/08/30 14:07:48;;;;;;;;;;;12.60;99.90;;;;;;5034900;28;19925;-68
2023/08/30 14:10:18;;;;;;;;;;;12.50;99.90;;;;;;5039373;28;20266;-69
2023/08/30 14:12:45;;;;;;;;;;;12.40;99.90;;;;;;5037885;28;20047;-69
2023/08/30 14:15:12;;;;;;;;;;;12.40;99.90;;;;;;5033559;28;19924;-68
2023/08/30 14:17:39;;;;;;;;;;;12.40;99.90;;;;;;5034237;28;20007;-70